createdAt,value
2023-12-27T00:00:03.449Z,13.22
2023-12-27T00:03:11.866Z,12.95
2023-12-27T00:06:11.066Z,12.99
2023-12-27T00:09:11.202Z,12.93
2023-12-27T00:12:16.868Z,12.84
2023-12-27T00:15:23.220Z,12.46
2023-12-27T00:18:28.821Z,12.70
2023-12-27T00:21:34.849Z,13.07
2023-12-27T00:24:41.229Z,12.87
2023-12-27T00:27:47.694Z,12.86
2023-12-27T00:30:56.016Z,12.61
2023-12-27T00:34:03.799Z,12.60
2023-12-27T00:37:10.123Z,12.46
2023-12-27T00:40:16.433Z,12.90
2023-12-27T00:43:21.600Z,12.63
2023-12-27T00:46:27.830Z,12.44
2023-12-27T00:49:33.331Z,12.43
2023-12-27T00:52:40.519Z,12.49
2023-12-27T00:55:47.280Z,12.56
2023-12-27T00:58:54.214Z,12.83
2023-12-27T01:02:04.638Z,12.79
2023-12-27T01:05:11.974Z,12.86
2023-12-27T01:08:18.863Z,12.63
2023-12-27T01:11:24.770Z,12.91
2023-12-27T01:14:31.772Z,12.81
2023-12-27T01:17:37.152Z,12.79
2023-12-27T01:20:42.964Z,13.06
2023-12-27T01:23:48.308Z,13.20
2023-12-27T01:26:54.516Z,13.29
2023-12-27T01:30:02.575Z,13.31
2023-12-27T01:33:10.326Z,13.39
2023-12-27T01:36:23.019Z,12.87
2023-12-27T01:39:28.392Z,13.18
2023-12-27T01:42:33.720Z,12.87
2023-12-27T01:45:40.213Z,12.88
2023-12-27T01:48:46.774Z,12.67
2023-12-27T01:51:53.858Z,12.73
2023-12-27T01:54:58.980Z,12.08
2023-12-27T01:58:04.083Z,12.65
2023-12-27T02:01:10.850Z,13.01
2023-12-27T02:04:16.280Z,12.74
2023-12-27T02:07:28.572Z,12.66
2023-12-27T02:10:29.856Z,12.37
2023-12-27T02:13:36.813Z,12.38
2023-12-27T02:16:42.439Z,12.60
2023-12-27T02:19:49.124Z,12.63
2023-12-27T02:22:55.714Z,12.79
2023-12-27T02:26:00.836Z,12.94
2023-12-27T02:29:05.995Z,12.23
2023-12-27T02:32:12.200Z,12.40
2023-12-27T02:35:17.353Z,12.59
2023-12-27T02:38:24.328Z,12.39
2023-12-27T02:41:30.731Z,12.30
2023-12-27T02:44:37.368Z,12.38
2023-12-27T02:47:41.942Z,12.57
2023-12-27T02:50:47.454Z,12.38
2023-12-27T02:53:54.043Z,12.34
2023-12-27T02:57:00.157Z,12.44
2023-12-27T03:00:05.684Z,12.48
2023-12-27T03:03:12.695Z,12.36
2023-12-27T03:06:18.327Z,12.28
2023-12-27T03:09:24.648Z,12.43
2023-12-27T03:12:24.749Z,12.69
2023-12-27T03:15:24.524Z,12.51
2023-12-27T03:18:31.267Z,12.42
2023-12-27T03:21:38.212Z,12.53
2023-12-27T03:24:44.705Z,12.26
2023-12-27T03:27:50.725Z,12.22
2023-12-27T03:30:57.496Z,12.20
2023-12-27T03:34:04.644Z,12.22
2023-12-27T03:37:11.213Z,12.50
2023-12-27T03:40:18.126Z,12.38
2023-12-27T03:43:24.173Z,12.44
2023-12-27T03:46:30.194Z,12.40
2023-12-27T03:49:36.788Z,12.44
2023-12-27T03:52:42.866Z,12.22
2023-12-27T03:55:48.533Z,12.24
2023-12-27T03:58:55.021Z,12.22
2023-12-27T04:01:55.603Z,12.43
2023-12-27T04:04:48.893Z,12.41
2023-12-27T04:07:56.053Z,12.53
2023-12-27T04:11:01.857Z,12.47
2023-12-27T04:14:08.595Z,12.47
2023-12-27T04:17:14.982Z,12.52
2023-12-27T04:20:21.415Z,12.47
2023-12-27T04:23:27.100Z,12.31
2023-12-27T04:26:32.479Z,12.02
2023-12-27T04:29:38.643Z,12.01
2023-12-27T04:32:46.462Z,12.05
2023-12-27T04:35:52.980Z,11.94
2023-12-27T04:38:58.548Z,11.72
2023-12-27T04:42:05.483Z,11.77
2023-12-27T04:45:12.720Z,11.67
2023-12-27T04:48:18.826Z,11.76
2023-12-27T04:51:25.415Z,11.58
2023-12-27T04:54:31.970Z,11.68
2023-12-27T04:57:39.426Z,11.78
2023-12-27T05:00:45.425Z,11.86
2023-12-27T05:03:52.244Z,11.68
2023-12-27T05:06:58.460Z,11.64
2023-12-27T05:10:04.475Z,11.51
2023-12-27T05:13:10.571Z,11.43
2023-12-27T05:16:16.259Z,11.58
2023-12-27T05:19:23.291Z,11.72
2023-12-27T05:22:28.694Z,11.80
2023-12-27T05:25:34.491Z,12.02
2023-12-27T05:28:39.882Z,11.65
2023-12-27T05:31:45.977Z,11.66
2023-12-27T05:34:53.680Z,11.57
2023-12-27T05:38:00.073Z,11.82
2023-12-27T05:41:06.368Z,11.81
2023-12-27T05:44:12.921Z,11.70
2023-12-27T05:47:20.030Z,11.57
2023-12-27T05:50:25.871Z,11.69
2023-12-27T05:53:31.648Z,11.97
2023-12-27T05:56:38.447Z,12.02
2023-12-27T05:59:44.102Z,11.93
2023-12-27T06:02:49.695Z,12.13
2023-12-27T06:05:55.393Z,12.08
2023-12-27T06:09:01.826Z,11.95
2023-12-27T06:12:07.223Z,12.12
2023-12-27T06:15:15.407Z,12.12
2023-12-27T06:18:20.793Z,12.22
2023-12-27T06:21:27.430Z,12.48
2023-12-27T06:24:34.850Z,12.54
2023-12-27T06:27:42.082Z,12.34
2023-12-27T06:30:49.336Z,12.28
2023-12-27T06:33:56.378Z,12.40
2023-12-27T06:37:04.974Z,12.40
2023-12-27T06:40:11.051Z,12.43
2023-12-27T06:43:16.979Z,12.38
2023-12-27T06:46:23.818Z,12.36
2023-12-27T06:49:29.798Z,12.54
2023-12-27T06:52:35.791Z,12.40
2023-12-27T06:55:41.571Z,12.48
2023-12-27T06:58:47.845Z,12.86
2023-12-27T07:01:53.939Z,12.75
2023-12-27T07:04:59.053Z,12.81
2023-12-27T07:08:05.059Z,12.66
2023-12-27T07:11:11.120Z,12.84
2023-12-27T07:14:16.576Z,12.81
2023-12-27T07:17:22.850Z,13.20
2023-12-27T07:20:29.613Z,13.36
2023-12-27T07:23:36.332Z,13.27
2023-12-27T07:26:42.622Z,13.22
2023-12-27T07:29:49.966Z,13.13
2023-12-27T07:32:57.094Z,13.32
2023-12-27T07:36:04.763Z,13.47
2023-12-27T07:39:13.325Z,13.44
2023-12-27T07:42:19.217Z,13.38
2023-12-27T07:45:28.909Z,13.46
2023-12-27T07:48:34.616Z,13.31
2023-12-27T07:51:44.012Z,13.24
2023-12-27T07:54:52.931Z,13.07
2023-12-27T07:57:59.253Z,12.92
2023-12-27T08:01:06.434Z,13.24
2023-12-27T08:04:13.232Z,13.32
2023-12-27T08:07:13.264Z,12.95
2023-12-27T08:10:09.960Z,13.02
2023-12-27T09:17:40.965Z,13.44
2023-12-27T09:20:47.088Z,13.71
2023-12-27T09:23:53.885Z,13.69
2023-12-27T09:26:59.287Z,13.50
2023-12-27T09:30:06.183Z,13.58
2023-12-27T09:33:15.563Z,13.52
2023-12-27T09:36:21.684Z,13.68
2023-12-27T09:39:27.734Z,13.72
2023-12-27T09:42:51.056Z,13.94
2023-12-27T09:45:58.788Z,13.90
2023-12-27T09:49:16.821Z,14.00
2023-12-27T09:52:23.568Z,14.21
2023-12-27T09:55:39.512Z,14.52
2023-12-27T09:58:54.862Z,14.56
2023-12-27T10:02:10.147Z,14.56
2023-12-27T10:05:24.497Z,14.54
2023-12-27T10:08:33.152Z,14.66
2023-12-27T10:11:40.006Z,14.81
2023-12-27T10:14:46.905Z,14.39
2023-12-27T10:17:52.669Z,14.32
2023-12-27T10:21:00.382Z,14.04
2023-12-27T10:24:07.745Z,13.87
2023-12-27T10:27:17.901Z,13.91
2023-12-27T10:30:24.413Z,14.08
2023-12-27T10:33:32.004Z,14.07
2023-12-27T10:36:39.620Z,13.90
2023-12-27T10:39:46.708Z,14.01
2023-12-27T10:42:54.517Z,14.11
2023-12-27T10:46:00.561Z,14.10
2023-12-27T10:49:08.886Z,14.53
2023-12-27T10:52:15.178Z,14.47
2023-12-27T10:55:21.425Z,14.41
2023-12-27T10:58:36.102Z,14.33
2023-12-27T11:01:53.111Z,14.31
2023-12-27T11:05:02.426Z,14.11
2023-12-27T11:08:16.743Z,14.34
2023-12-27T11:11:24.476Z,14.56
2023-12-27T11:14:32.894Z,14.55
2023-12-27T11:17:38.064Z,14.46
2023-12-27T11:20:45.914Z,14.44
2023-12-27T11:23:52.905Z,14.43
2023-12-27T11:27:03.363Z,14.49
2023-12-27T11:30:09.766Z,14.63
2023-12-27T11:33:16.392Z,14.55
2023-12-27T11:36:25.252Z,14.64
2023-12-27T11:39:37.089Z,14.01
2023-12-27T11:42:43.588Z,14.02
2023-12-27T11:46:15.126Z,13.98
2023-12-27T11:49:20.757Z,14.26
2023-12-27T11:52:29.211Z,14.24
2023-12-27T11:55:36.963Z,14.25
2023-12-27T11:58:49.937Z,14.24
2023-12-27T12:01:57.460Z,13.79
2023-12-27T12:05:14.049Z,14.23
2023-12-27T12:08:43.437Z,13.76
2023-12-27T12:11:50.188Z,13.75
2023-12-27T12:14:57.639Z,13.89
2023-12-27T12:18:06.033Z,13.94
2023-12-27T12:21:11.979Z,13.85
2023-12-27T12:24:26.883Z,13.69
2023-12-27T14:19:54.840Z,6.53
2023-12-27T14:23:22.829Z,6.31
2023-12-27T14:26:33.539Z,6.26
2023-12-27T14:29:41.153Z,6.33
2023-12-27T14:32:47.806Z,5.94
2023-12-27T14:35:56.798Z,5.12
2023-12-27T14:39:05.791Z,5.68
2023-12-27T14:42:14.000Z,5.65
2023-12-27T14:45:25.715Z,5.66
2023-12-27T14:48:38.970Z,5.58
2023-12-27T14:51:46.064Z,5.54
2023-12-27T14:54:54.848Z,5.75
2023-12-27T14:58:21.764Z,5.86
2023-12-27T15:01:37.020Z,5.61
2023-12-27T15:04:48.039Z,5.74
2023-12-27T15:08:06.871Z,5.94
2023-12-27T15:11:33.554Z,5.62
2023-12-27T15:14:47.150Z,5.36
2023-12-27T15:18:02.467Z,5.43
2023-12-27T15:21:11.850Z,5.57
2023-12-27T15:24:25.269Z,5.56
2023-12-27T15:27:34.731Z,5.53
2023-12-27T15:30:57.835Z,6.25
2023-12-27T15:34:14.328Z,5.70
2023-12-27T15:37:28.587Z,4.55
2023-12-27T15:40:45.918Z,4.38
2023-12-27T15:43:58.275Z,5.94
2023-12-27T15:47:08.882Z,5.59
2023-12-27T15:50:21.806Z,5.64
2023-12-27T15:53:28.830Z,5.83
2023-12-27T15:56:50.432Z,5.79
2023-12-27T15:59:58.478Z,5.99
2023-12-27T16:03:05.129Z,6.06
2023-12-27T16:06:05.243Z,5.76
2023-12-27T16:09:15.636Z,5.99
2023-12-27T16:12:22.885Z,6.30
2023-12-27T16:15:33.958Z,6.12
2023-12-27T16:18:39.831Z,6.05
2023-12-27T16:21:46.593Z,6.29
2023-12-27T16:24:54.025Z,5.80
2023-12-27T16:28:03.361Z,5.80
2023-12-27T16:31:10.398Z,5.71
2023-12-27T16:34:18.025Z,5.94
2023-12-27T16:37:25.093Z,5.94
2023-12-27T16:40:31.154Z,6.11
2023-12-27T16:43:44.702Z,5.94
2023-12-27T16:46:52.348Z,6.16
2023-12-27T16:50:01.460Z,6.39
2023-12-27T16:53:07.099Z,6.54
2023-12-27T16:56:13.963Z,6.76
2023-12-27T16:59:20.507Z,6.61
2023-12-27T17:02:26.358Z,6.60
2023-12-27T17:05:32.071Z,6.39
2023-12-27T17:08:37.804Z,6.76
2023-12-27T17:11:45.856Z,6.64
2023-12-27T17:14:54.958Z,6.71
2023-12-27T17:18:01.493Z,6.79
2023-12-27T17:21:08.393Z,6.52
2023-12-27T17:24:15.158Z,6.90
2023-12-27T17:27:25.095Z,6.60
2023-12-27T17:30:32.960Z,6.97
2023-12-27T17:33:39.406Z,6.60
2023-12-27T17:36:46.025Z,6.73
2023-12-27T17:39:52.617Z,7.18
2023-12-27T17:43:00.125Z,7.29
2023-12-27T17:46:06.171Z,7.59
2023-12-27T17:49:12.544Z,7.89
2023-12-27T17:52:18.664Z,7.91
2023-12-27T17:55:25.011Z,7.72
2023-12-27T17:58:33.810Z,7.84
2023-12-27T18:01:39.530Z,7.88
2023-12-27T18:04:47.946Z,7.94
2023-12-27T18:07:55.527Z,8.36
2023-12-27T18:11:01.235Z,8.35
2023-12-27T18:14:08.168Z,8.27
2023-12-27T18:17:14.322Z,8.28
2023-12-27T18:20:23.345Z,8.75
2023-12-27T18:23:31.400Z,8.49
2023-12-27T18:26:42.142Z,8.89
2023-12-27T18:29:47.657Z,9.01
2023-12-27T18:32:54.120Z,8.90
2023-12-27T18:36:02.530Z,8.70
2023-12-27T18:39:09.344Z,8.36
2023-12-27T18:42:15.055Z,8.47
2023-12-27T18:45:22.726Z,8.67
2023-12-27T18:48:30.720Z,8.78
2023-12-27T18:51:37.218Z,9.46
2023-12-27T18:54:44.209Z,9.76
2023-12-27T18:57:50.955Z,9.03
2023-12-27T19:00:58.187Z,9.44
2023-12-27T19:04:05.100Z,9.70
2023-12-27T19:07:10.549Z,8.88
2023-12-27T19:10:17.961Z,8.90
2023-12-27T19:13:25.695Z,9.05
2023-12-27T19:16:34.362Z,9.39
2023-12-27T19:19:40.492Z,9.72
2023-12-27T19:22:49.397Z,8.75
2023-12-27T19:25:55.946Z,8.97
2023-12-27T19:29:04.490Z,9.07
2023-12-27T19:32:12.078Z,9.35
2023-12-27T19:35:22.344Z,9.02
2023-12-27T19:38:28.950Z,9.30
2023-12-27T19:41:35.928Z,9.52
2023-12-27T19:44:42.875Z,9.09
2023-12-27T19:47:48.584Z,9.53
2023-12-27T19:50:54.892Z,9.50
2023-12-27T19:54:01.048Z,9.03
2023-12-27T19:57:07.337Z,9.56
2023-12-27T20:00:13.738Z,9.36
2023-12-27T20:03:20.266Z,9.81
2023-12-27T20:06:27.130Z,9.54
2023-12-27T20:09:33.556Z,9.81
2023-12-27T20:12:39.451Z,9.40
2023-12-27T20:15:49.209Z,9.40
2023-12-27T20:18:54.683Z,9.54
2023-12-27T20:22:01.839Z,8.99
2023-12-27T20:25:08.790Z,8.95
2023-12-27T20:28:14.984Z,9.44
2023-12-27T20:31:20.509Z,9.39
2023-12-27T20:34:27.386Z,9.52
2023-12-27T20:37:34.667Z,8.59
2023-12-27T20:40:41.281Z,9.15
2023-12-27T20:43:48.494Z,9.06
2023-12-27T20:46:55.321Z,9.07
2023-12-27T20:50:01.836Z,9.19
2023-12-27T20:53:10.155Z,8.84
2023-12-27T20:56:17.467Z,7.89
2023-12-27T20:59:25.883Z,8.08
2023-12-27T21:02:33.913Z,8.61
2023-12-27T21:05:41.235Z,8.17
2023-12-27T21:08:48.434Z,8.96
2023-12-27T21:11:56.028Z,8.74
2023-12-27T21:15:04.337Z,8.86
2023-12-27T21:18:11.457Z,8.44
2023-12-27T21:21:18.502Z,8.19
2023-12-27T21:24:25.413Z,7.92
2023-12-27T21:27:31.923Z,7.74
2023-12-27T21:30:37.964Z,8.10
2023-12-27T21:33:44.564Z,8.08
2023-12-27T21:36:50.826Z,7.64
2023-12-27T21:39:57.285Z,7.89
2023-12-27T21:43:04.617Z,8.16
2023-12-27T21:46:12.709Z,8.05
2023-12-27T21:49:18.303Z,8.04
2023-12-27T21:52:25.152Z,8.14
2023-12-27T21:55:30.661Z,7.92
2023-12-27T21:58:36.648Z,8.70
2023-12-27T22:01:42.907Z,8.54
2023-12-27T22:04:52.110Z,8.37
2023-12-27T22:08:05.209Z,8.50
2023-12-27T22:11:06.258Z,8.54
2023-12-27T22:14:13.774Z,9.05
2023-12-27T22:17:21.369Z,8.86
2023-12-27T22:20:29.345Z,8.83
2023-12-27T22:23:35.264Z,8.74
2023-12-27T22:26:41.681Z,9.04
2023-12-27T22:29:48.384Z,8.76
2023-12-27T22:32:56.121Z,9.03
2023-12-27T22:36:02.464Z,9.11
2023-12-27T22:39:08.407Z,8.82
2023-12-27T22:42:14.278Z,8.73
2023-12-27T22:45:22.357Z,8.56
2023-12-27T22:48:29.807Z,8.36
2023-12-27T22:51:36.581Z,8.50
2023-12-27T22:54:42.860Z,8.32
2023-12-27T22:57:49.478Z,7.93
2023-12-27T23:00:57.226Z,8.01
2023-12-27T23:04:03.950Z,7.97
2023-12-27T23:07:10.607Z,7.97
2023-12-27T23:10:16.902Z,7.96
2023-12-27T23:13:23.830Z,7.89
2023-12-27T23:16:30.699Z,7.86
2023-12-27T23:19:37.112Z,8.01
2023-12-27T23:22:43.854Z,8.00
2023-12-27T23:25:51.985Z,7.83
2023-12-27T23:28:58.593Z,7.82
2023-12-27T23:32:05.571Z,7.85
2023-12-27T23:35:11.216Z,7.56
2023-12-27T23:38:17.888Z,7.80
2023-12-27T23:41:23.750Z,8.03
2023-12-27T23:44:30.387Z,7.99
2023-12-27T23:47:35.935Z,7.63
2023-12-27T23:50:42.437Z,7.49
2023-12-27T23:53:49.501Z,8.00
2023-12-27T23:56:55.954Z,8.03
